Time;durP1;ratioP1;P1;durP2;ratioP2;P2;SDS_P1;SDS_P2;PMS_P1;PMS_P2;Temp;Humidity;BMP_temperature;BMP_pressure;BME280_temperature;BME280_humidity;BME280_pressure;Samples;Min_cycle;Max_cycle;Signal;HPM_P1;HPM_P2
2022/05/04 00:01:28;;;;;;;10.13;5.10;;;;;;;10.41;69.88;100062.13;4171271;28;20241;-66
2022/05/04 00:03:55;;;;;;;12.80;5.17;;;;;;;10.42;70.80;100050.50;4171537;28;22141;-66
2022/05/04 00:06:22;;;;;;;11.07;5.13;;;;;;;10.42;70.74;100066.47;4178617;28;20318;-66
2022/05/04 00:08:49;;;;;;;8.73;5.03;;;;;;;10.50;70.11;100060.38;4171830;28;23707;-67
2022/05/04 00:11:15;;;;;;;9.87;5.30;;;;;;;10.44;70.48;100060.97;4174961;28;20253;-66
2022/05/04 00:13:42;;;;;;;17.97;5.47;;;;;;;10.21;71.59;100068.53;4179792;28;20246;-66
2022/05/04 00:16:08;;;;;;;10.70;5.00;;;;;;;10.24;72.05;100077.06;4174207;28;25891;-66
2022/05/04 00:18:35;;;;;;;9.93;5.17;;;;;;;10.33;71.29;100070.03;4168857;28;23197;-67
2022/05/04 00:21:02;;;;;;;10.27;4.87;;;;;;;10.32;71.38;100076.34;4199411;28;20238;-66
2022/05/04 00:23:28;;;;;;;8.70;5.10;;;;;;;10.31;71.51;100078.16;4164478;28;20375;-68
2022/05/04 00:25:57;;;;;;;15.93;5.53;;;;;;;10.23;72.09;100074.56;4178008;28;22810;-67
2022/05/04 00:28:24;;;;;;;10.77;5.60;;;;;;;10.23;72.57;100079.88;4167445;28;21835;-66
2022/05/04 00:30:52;;;;;;;11.50;5.30;;;;;;;10.22;72.57;100084.34;4168774;28;20253;-66
2022/05/04 00:33:19;;;;;;;13.27;5.53;;;;;;;10.20;72.84;100080.19;4183385;28;20238;-68
2022/05/04 00:35:45;;;;;;;10.37;4.87;;;;;;;10.24;72.75;100086.88;4172021;28;20256;-66
2022/05/04 00:38:12;;;;;;;14.57;5.17;;;;;;;10.18;73.13;100084.81;4162452;28;26012;-66
2022/05/04 00:40:38;;;;;;;9.00;5.43;;;;;;;10.35;71.87;100094.66;4147981;28;20651;-64
2022/05/04 00:43:18;;;;;;;9.83;4.73;;;;;;;10.35;72.47;100094.66;4168129;28;20271;-64
2022/05/04 00:45:45;;;;;;;10.00;5.13;;;;;;;10.40;72.37;100095.03;4158495;28;20297;-64
2022/05/04 00:48:12;;;;;;;9.83;5.30;;;;;;;10.37;72.53;100092.66;4188190;28;21915;-64
2022/05/04 00:50:39;;;;;;;13.37;5.47;;;;;;;10.19;73.71;100094.47;4167231;28;20234;-65
2022/05/04 00:53:05;;;;;;;12.53;5.70;;;;;;;10.27;73.46;100097.19;4164865;28;20238;-65
2022/05/04 00:55:32;;;;;;;9.07;5.13;;;;;;;10.32;73.28;100100.28;4180247;28;20241;-66
2022/05/04 01:00:48;;;;;;;8.17;4.63;;;;;;;10.33;73.19;100110.78;4190050;28;20233;-66
2022/05/04 01:03:15;;;;;;;11.80;5.30;;;;;;;10.10;74.48;100105.00;4167812;28;20233;-65
2022/05/04 01:05:43;;;;;;;9.97;4.50;;;;;;;10.06;75.34;100105.47;4171403;28;20319;-66
2022/05/04 01:08:09;;;;;;;9.50;4.67;;;;;;;10.08;75.00;100101.66;4186817;28;22601;-64
2022/05/04 01:10:36;;;;;;;6.33;3.67;;;;;;;10.10;74.99;100102.34;4178578;28;20363;-64
2022/05/04 01:13:02;;;;;;;7.87;4.50;;;;;;;10.05;74.84;100101.97;4169142;28;20253;-65
2022/05/04 01:15:29;;;;;;;5.87;3.90;;;;;;;10.06;74.98;100116.94;4166268;28;20340;-64
2022/05/04 01:17:56;;;;;;;6.77;4.23;;;;;;;10.04;74.26;100107.44;4166188;28;20304;-64
2022/05/04 01:20:24;;;;;;;9.20;4.70;;;;;;;10.10;73.84;100110.34;4155875;28;20237;-65
2022/05/04 01:22:52;;;;;;;8.37;3.83;;;;;;;10.06;73.72;100105.47;4188793;28;20241;-64
2022/05/04 01:25:19;;;;;;;6.47;4.20;;;;;;;10.03;73.96;100098.63;4177852;28;20693;-65
2022/05/04 01:27:46;;;;;;;8.63;4.37;;;;;;;9.95;74.17;100109.19;4166731;28;22606;-65
2022/05/04 01:30:12;;;;;;;7.03;3.90;;;;;;;10.01;73.86;100105.91;4162583;28;22045;-65
2022/05/04 01:32:39;;;;;;;7.43;3.80;;;;;;;9.98;73.96;100108.88;4173413;28;20332;-65
2022/05/04 01:35:06;;;;;;;7.33;3.90;;;;;;;9.91;74.48;100107.81;4162751;28;20242;-65
2022/05/04 01:37:33;;;;;;;10.47;4.60;;;;;;;9.90;74.06;100103.44;4172156;28;21239;-66
2022/05/04 01:39:59;;;;;;;6.80;3.80;;;;;;;9.85;74.47;100103.06;4182854;28;22321;-64
2022/05/04 01:42:26;;;;;;;7.33;4.27;;;;;;;9.91;73.98;100103.31;4188359;28;20232;-66
2022/05/04 01:44:52;;;;;;;6.90;3.83;;;;;;;9.93;73.87;100097.88;4172303;28;23682;-66
2022/05/04 01:47:19;;;;;;;7.27;4.00;;;;;;;9.92;74.53;100106.81;4177622;28;20264;-66
2022/05/04 01:49:45;;;;;;;8.77;4.07;;;;;;;9.88;74.18;100110.72;4176654;28;20234;-65
2022/05/04 01:52:12;;;;;;;6.17;4.30;;;;;;;9.82;74.08;100119.31;4183188;28;22967;-65
2022/05/04 01:54:39;;;;;;;8.30;4.10;;;;;;;9.91;74.73;100123.75;4175371;28;20225;-67
2022/05/04 01:57:07;;;;;;;6.70;3.93;;;;;;;9.94;74.49;100126.09;4179180;28;20245;-67
2022/05/04 01:59:33;;;;;;;7.37;4.27;;;;;;;9.83;75.02;100115.66;4178741;28;20316;-67
2022/05/04 02:02:00;;;;;;;8.03;4.17;;;;;;;9.86;75.24;100118.03;4170168;28;23168;-68
2022/05/04 02:04:27;;;;;;;7.77;4.30;;;;;;;9.89;74.75;100118.56;4176210;28;21447;-66
2022/05/04 02:06:54;;;;;;;7.07;4.27;;;;;;;9.89;74.61;100117.75;4173522;28;20226;-65
2022/05/04 02:09:27;;;;;;;9.37;3.97;;;;;;;9.76;75.04;100122.56;4179196;28;20300;-67
2022/05/04 02:11:53;;;;;;;7.47;3.83;;;;;;;9.71;75.99;100134.47;4172486;28;20246;-66
2022/05/04 02:14:20;;;;;;;7.07;4.47;;;;;;;9.69;75.97;100131.13;4169488;28;21048;-66
2022/05/04 02:16:47;;;;;;;8.33;4.43;;;;;;;9.71;75.42;100131.81;4172329;28;20236;-66
2022/05/04 02:19:13;;;;;;;8.30;4.90;;;;;;;9.63;76.05;100134.38;4182675;28;20718;-66
2022/05/04 02:21:40;;;;;;;8.60;4.73;;;;;;;9.66;75.49;100133.22;4179492;28;20293;-64
2022/05/04 02:24:06;;;;;;;8.43;4.67;;;;;;;9.63;74.97;100136.19;4178415;28;21719;-65
2022/05/04 02:26:33;;;;;;;8.37;4.37;;;;;;;9.62;75.24;100127.38;4180097;28;23622;-65
2022/05/04 02:28:59;;;;;;;12.60;4.33;;;;;;;9.63;74.69;100126.41;4177428;28;20564;-66
2022/05/04 02:31:26;;;;;;;7.10;3.90;;;;;;;9.72;74.36;100132.66;4179671;28;20233;-64
2022/05/04 02:33:52;;;;;;;8.33;3.77;;;;;;;9.68;73.88;100129.44;4185116;28;21185;-67
2022/05/04 02:39:04;;;;;;;11.03;4.23;;;;;;;9.68;73.15;100139.25;4176710;28;20460;-65
2022/05/04 02:41:31;;;;;;;7.63;3.83;;;;;;;9.69;73.01;100141.75;4177476;28;20333;-66
2022/05/04 02:44:00;;;;;;;10.13;3.70;;;;;;;9.59;73.00;100135.63;4174629;28;20365;-66
2022/05/04 02:46:28;;;;;;;6.80;3.73;;;;;;;9.59;72.56;100150.75;4183720;28;20352;-66
2022/05/04 02:48:55;;;;;;;9.20;3.80;;;;;;;9.54;72.16;100150.34;4176986;28;20230;-67
2022/05/04 02:51:22;;;;;;;6.67;3.93;;;;;;;9.49;72.44;100150.78;4194026;28;20236;-66
2022/05/04 02:53:49;;;;;;;8.07;3.27;;;;;;;9.49;72.23;100145.47;4178822;28;20234;-64
2022/05/04 02:56:15;;;;;;;10.70;3.83;;;;;;;9.48;72.26;100157.06;4169633;28;20345;-66
2022/05/04 02:58:42;;;;;;;7.53;3.43;;;;;;;9.43;72.25;100151.34;4175502;28;20231;-66
2022/05/04 03:04:07;;;;;;;9.40;3.90;;;;;;;9.43;71.92;100149.53;4180340;28;20529;-65
2022/05/04 03:06:41;;;;;;;9.43;4.10;;;;;;;9.33;72.73;100155.88;4180540;28;20237;-65
2022/05/04 03:09:10;;;;;;;6.60;3.70;;;;;;;9.29;72.90;100155.28;4173271;28;20643;-65
2022/05/04 03:11:55;;;;;;;8.47;3.70;;;;;;;9.23;73.69;100167.34;4169225;28;23146;-66
2022/05/04 03:14:27;;;;;;;6.07;3.70;;;;;;;9.36;73.53;100171.50;4194741;28;21236;-65
2022/05/04 03:16:54;;;;;;;7.57;3.80;;;;;;;9.40;73.73;100173.72;4173238;28;20242;-65
2022/05/04 03:19:21;;;;;;;9.63;4.20;;;;;;;9.49;74.25;100174.69;4171046;28;21744;-66
2022/05/04 03:21:49;;;;;;;9.57;4.70;;;;;;;9.50;74.41;100173.69;4182106;28;20915;-66
2022/05/04 03:24:16;;;;;;;10.77;4.60;;;;;;;9.44;74.71;100176.94;4219592;28;20629;-65
2022/05/04 03:26:43;;;;;;;6.97;3.90;;;;;;;9.43;75.62;100178.75;4185778;28;20233;-65
2022/05/04 03:29:10;;;;;;;8.77;4.37;;;;;;;9.26;76.35;100175.00;4223341;28;20290;-66
2022/05/04 03:31:37;;;;;;;9.90;4.60;;;;;;;9.13;77.74;100179.81;4199454;28;21244;-65
2022/05/04 03:34:04;;;;;;;13.30;4.60;;;;;;;9.22;76.90;100181.56;4229241;28;20240;-66
2022/05/04 03:36:31;;;;;;;11.60;4.60;;;;;;;9.33;76.30;100180.59;4205197;28;20297;-66
2022/05/04 03:38:58;;;;;;;10.33;4.70;;;;;;;9.27;76.37;100179.34;4224769;28;20234;-64
2022/05/04 03:41:25;;;;;;;10.47;4.57;;;;;;;9.24;77.16;100186.75;4198245;28;20227;-66
2022/05/04 03:43:52;;;;;;;8.60;4.63;;;;;;;9.11;76.99;100188.88;4191000;28;20345;-65
2022/05/04 03:46:26;;;;;;;6.43;4.00;;;;;;;9.03;77.72;100186.91;4192778;28;20243;-65
2022/05/04 03:48:59;;;;;;;7.70;4.23;;;;;;;8.96;78.21;100194.59;4190557;28;21257;-64
2022/05/04 03:51:30;;;;;;;7.20;4.23;;;;;;;9.04;76.98;100193.94;4232211;28;20291;-64
2022/05/04 03:53:57;;;;;;;8.97;4.40;;;;;;;9.07;76.75;100198.94;4216104;28;21932;-65
2022/05/04 03:56:24;;;;;;;8.03;4.17;;;;;;;9.03;76.82;100202.84;4223229;28;21509;-66
2022/05/04 03:58:50;;;;;;;11.27;4.60;;;;;;;8.92;76.94;100202.97;4206863;28;20722;-66
2022/05/04 04:01:20;;;;;;;8.93;3.93;;;;;;;9.02;76.20;100203.84;4205744;28;23783;-67
2022/05/04 04:03:47;;;;;;;10.33;4.40;;;;;;;8.94;75.32;100207.16;4182065;28;20236;-64
2022/05/04 04:06:13;;;;;;;9.00;4.60;;;;;;;8.95;75.65;100205.38;4178310;28;22176;-64
2022/05/04 04:08:47;;;;;;;8.37;4.10;;;;;;;8.88;76.10;100205.94;4186950;28;20455;-65
2022/05/04 04:11:14;;;;;;;8.73;3.77;;;;;;;8.91;75.40;100214.59;4174966;28;20506;-65
2022/05/04 04:13:41;;;;;;;9.13;3.77;;;;;;;9.01;74.87;100218.06;4193478;28;20245;-65
2022/05/04 04:16:07;;;;;;;8.50;3.27;;;;;;;9.08;73.46;100220.03;4204219;28;20973;-67
2022/05/04 04:18:34;;;;;;;11.50;4.33;;;;;;;9.09;73.26;100215.56;4184777;28;20251;-66
2022/05/04 04:23:48;;;;;;;8.10;3.33;;;;;;;9.16;71.21;100234.44;4194582;28;20264;-65
2022/05/04 04:26:15;;;;;;;5.50;3.30;;;;;;;9.19;70.52;100234.97;4200133;28;20270;-65
2022/05/04 04:28:41;;;;;;;7.53;3.23;;;;;;;9.14;70.42;100234.56;4209214;28;20269;-66
2022/05/04 04:31:11;;;;;;;8.20;3.27;;;;;;;9.15;70.50;100238.88;4239292;28;20229;-67
2022/05/04 04:33:38;;;;;;;6.10;3.20;;;;;;;9.23;69.61;100241.69;4207839;28;21614;-66
2022/05/04 04:36:09;;;;;;;5.33;2.90;;;;;;;9.37;68.93;100242.22;4255708;28;20240;-67
2022/05/04 04:38:36;;;;;;;8.87;3.27;;;;;;;9.39;68.47;100238.47;4227405;28;20258;-67
2022/05/04 04:41:02;;;;;;;8.33;3.10;;;;;;;9.44;66.79;100243.34;4239965;28;20245;-67
2022/05/04 04:43:29;;;;;;;5.77;2.87;;;;;;;9.40;66.64;100248.09;4197321;28;20248;-67
2022/05/04 04:45:56;;;;;;;13.53;3.93;;;;;;;9.43;66.16;100257.59;4270593;28;20847;-66
2022/05/04 04:48:23;;;;;;;5.97;3.07;;;;;;;9.46;65.87;100241.38;4290336;28;20241;-65
2022/05/04 04:50:49;;;;;;;7.07;2.83;;;;;;;9.45;65.58;100253.81;4234368;28;20240;-67
2022/05/04 04:53:17;;;;;;;10.50;3.03;;;;;;;9.47;64.91;100251.84;4205797;28;20394;-67
2022/05/04 04:55:44;;;;;;;8.03;2.87;;;;;;;9.61;64.14;100255.88;4194235;28;20235;-67
2022/05/04 04:58:11;;;;;;;8.57;3.00;;;;;;;9.61;63.40;100261.19;4220019;28;20292;-68
2022/05/04 05:00:38;;;;;;;12.73;2.87;;;;;;;9.68;62.25;100261.47;4210935;28;20237;-66
2022/05/04 05:03:05;;;;;;;8.73;2.80;;;;;;;9.67;61.12;100265.13;4236091;28;20247;-68
2022/05/04 05:05:32;;;;;;;9.77;2.97;;;;;;;9.67;61.92;100254.50;4260948;28;20274;-67
2022/05/04 05:07:59;;;;;;;7.13;2.70;;;;;;;9.83;61.46;100264.50;4206681;28;20235;-68
2022/05/04 05:10:28;;;;;;;7.77;3.03;;;;;;;9.78;60.93;100267.56;4237736;28;21332;-66
2022/05/04 05:12:54;;;;;;;9.30;2.77;;;;;;;9.84;60.49;100269.66;4195941;28;20285;-67
2022/05/04 05:18:07;;;;;;;4.33;2.23;;;;;;;9.75;59.63;100275.00;4250384;28;20271;-66
2022/05/04 05:20:34;;;;;;;7.20;2.83;;;;;;;9.81;59.86;100274.41;4197708;28;23106;-64
2022/05/04 05:23:01;;;;;;;8.77;2.60;;;;;;;9.91;59.30;100281.41;4170598;28;25345;-64
2022/05/04 05:25:29;;;;;;;11.47;2.73;;;;;;;10.09;58.38;100281.50;4205250;28;20241;-66
2022/05/04 05:27:56;;;;;;;10.10;2.70;;;;;;;10.14;57.75;100284.53;4199943;28;21218;-66
2022/05/04 05:30:23;;;;;;;12.50;2.70;;;;;;;10.32;57.89;100287.31;4164996;28;20238;-65
2022/05/04 05:32:49;;;;;;;7.97;2.30;;;;;;;10.45;56.79;100286.94;4184024;28;20242;-68
2022/05/04 05:35:16;;;;;;;14.17;2.80;;;;;;;10.37;55.79;100289.50;4203335;28;20328;-65
2022/05/04 05:37:43;;;;;;;9.40;2.77;;;;;;;10.48;55.98;100288.47;4174735;28;20243;-66
2022/05/04 05:40:16;;;;;;;10.33;2.70;;;;;;;10.56;55.32;100289.41;4196272;28;20789;-66
2022/05/04 05:42:42;;;;;;;8.30;2.50;;;;;;;10.50;55.06;100284.69;4202592;28;20288;-67
2022/05/04 05:45:09;;;;;;;8.40;2.60;;;;;;;10.41;54.15;100285.56;4190691;28;20699;-65
2022/05/04 05:47:36;;;;;;;10.10;2.67;;;;;;;10.35;54.18;100281.69;4176386;28;20242;-65
2022/05/04 05:50:02;;;;;;;8.87;2.70;;;;;;;10.40;53.88;100283.91;4212988;28;22106;-66
2022/05/04 05:52:30;;;;;;;6.07;2.87;;;;;;;10.35;53.82;100296.81;4201023;28;21021;-64
2022/05/04 05:54:58;;;;;;;9.90;2.43;;;;;;;10.40;53.65;100289.22;4198455;28;25500;-63
2022/05/04 05:57:25;;;;;;;9.70;2.73;;;;;;;10.43;53.71;100293.41;4183022;28;20463;-64
2022/05/04 05:59:58;;;;;;;7.63;2.20;;;;;;;10.53;53.23;100292.34;4201406;28;20241;-64
2022/05/04 06:02:30;;;;;;;7.40;2.47;;;;;;;10.61;53.52;100298.78;4199398;28;21563;-64
2022/05/04 06:04:56;;;;;;;5.37;2.37;;;;;;;10.82;51.63;100307.34;4176492;28;21212;-65
2022/05/04 06:07:23;;;;;;;6.20;2.17;;;;;;;11.98;49.16;100302.00;4183348;28;21256;-64
2022/05/04 06:09:50;;;;;;;9.87;2.63;;;;;;;12.28;47.01;100298.00;4202677;28;20364;-66
2022/05/04 06:12:17;;;;;;;8.97;2.63;;;;;;;12.50;46.73;100309.94;4164242;28;20714;-63
2022/05/04 06:14:44;;;;;;;7.97;2.30;;;;;;;12.65;46.84;100308.34;4204123;28;20238;-66
2022/05/04 06:17:11;;;;;;;7.80;2.20;;;;;;;13.20;45.39;100314.16;4177009;28;20257;-66
2022/05/04 06:19:38;;;;;;;10.90;2.60;;;;;;;12.93;45.62;100308.09;4171519;28;20235;-66
2022/05/04 06:22:05;;;;;;;6.07;2.47;;;;;;;13.24;45.35;100315.50;4183231;28;20734;-68
2022/05/04 06:24:31;;;;;;;8.00;2.30;;;;;;;13.65;43.63;100318.19;4179536;28;20230;-65
2022/05/04 06:26:58;;;;;;;9.93;2.77;;;;;;;13.79;43.46;100322.91;4185699;28;20231;-64
2022/05/04 06:34:06;;;;;;;12.03;2.63;;;;;;;13.70;42.94;100324.75;4186407;28;20281;-68
2022/05/04 06:34:56;;;;;;;6.17;2.63;;;;;;;16.04;37.60;100347.22;4188578;28;21842;-65
2022/05/04 06:37:23;;;;;;;10.40;2.60;;;;;;;17.93;33.73;100350.91;4191595;28;20314;-66
2022/05/04 06:39:49;;;;;;;12.13;2.57;;;;;;;17.67;33.06;100356.84;4173379;28;25128;-66
2022/05/04 06:42:17;;;;;;;7.27;2.60;;;;;;;17.04;35.32;100350.41;4201226;28;20322;-64
2022/05/04 06:44:44;;;;;;;7.37;2.60;;;;;;;18.39;32.04;100362.22;4193958;28;20320;-67
2022/05/04 06:47:11;;;;;;;7.30;2.43;;;;;;;19.37;29.91;100363.66;4201492;28;20392;-71
2022/05/04 06:49:38;;;;;;;10.60;3.10;;;;;;;21.11;27.79;100374.31;4186335;28;20399;-65
2022/05/04 06:52:05;;;;;;;10.57;2.27;;;;;;;22.33;25.45;100383.84;4194790;28;21756;-67
2022/05/04 06:54:32;;;;;;;8.43;2.60;;;;;;;22.20;24.70;100394.00;4192751;28;20386;-69
2022/05/04 06:56:58;;;;;;;9.17;2.33;;;;;;;21.27;25.28;100384.63;4200395;28;20248;-68
2022/05/04 06:59:26;;;;;;;11.50;2.17;;;;;;;20.91;25.50;100374.38;4196667;28;22429;-67
2022/05/04 07:01:54;;;;;;;8.33;2.53;;;;;;;21.47;25.08;100385.38;4188809;28;20744;-65
2022/05/04 07:04:21;;;;;;;5.07;2.27;;;;;;;22.85;24.10;100390.81;4188201;28;21158;-66
2022/05/04 07:06:48;;;;;;;14.50;2.90;;;;;;;23.57;22.42;100399.91;4167969;28;20317;-67
2022/05/04 07:09:15;;;;;;;12.07;2.30;;;;;;;22.51;22.79;100399.34;4180630;28;25260;-67
2022/05/04 07:11:41;;;;;;;9.83;2.47;;;;;;;22.58;23.72;100390.31;4196723;28;20237;-67
2022/05/04 07:14:14;;;;;;;9.30;2.50;;;;;;;21.75;24.01;100394.13;4205101;28;20407;-68
2022/05/04 07:16:41;;;;;;;7.63;2.37;;;;;;;20.88;25.35;100383.75;4184306;28;20964;-67
2022/05/04 07:19:13;;;;;;;8.37;2.10;;;;;;;20.78;25.15;100391.50;4182107;28;20316;-68
2022/05/04 07:21:41;;;;;;;8.97;2.23;;;;;;;20.74;25.61;100395.66;4173254;28;22846;-68
2022/05/04 07:24:07;;;;;;;13.73;2.60;;;;;;;19.48;26.72;100391.09;4210017;28;20246;-68
2022/05/04 07:26:34;;;;;;;7.47;2.33;;;;;;;18.96;28.21;100383.47;4199146;28;20316;-67
2022/05/04 07:29:00;;;;;;;14.50;2.57;;;;;;;18.75;27.77;100388.94;4218010;28;20458;-67
2022/05/04 07:31:27;;;;;;;6.33;2.07;;;;;;;18.51;28.40;100396.47;4199790;28;21352;-67
2022/05/04 07:33:54;;;;;;;12.13;2.60;;;;;;;19.26;27.20;100399.34;4195536;28;21539;-67
2022/05/04 07:36:21;;;;;;;7.23;2.10;;;;;;;20.23;26.19;100403.44;4200010;28;20251;-67
2022/05/04 07:38:47;;;;;;;10.47;2.30;;;;;;;20.73;25.41;100404.84;4212015;28;20248;-69
2022/05/04 07:43:59;;;;;;;9.23;2.57;;;;;;;20.21;26.20;100410.91;4195333;28;22208;-68
2022/05/04 07:46:27;;;;;;;12.57;3.17;;;;;;;20.12;26.12;100408.63;4220981;28;23009;-67
2022/05/04 07:48:55;;;;;;;11.20;2.40;;;;;;;18.95;27.45;100402.56;4236327;28;21596;-70
2022/05/04 07:51:25;;;;;;;11.90;2.40;;;;;;;18.00;28.97;100398.59;4200919;28;22405;-72
2022/05/04 07:53:51;;;;;;;12.13;2.40;;;;;;;17.52;30.46;100391.09;4230919;28;20297;-68
2022/05/04 07:56:18;;;;;;;11.93;2.13;;;;;;;17.88;31.14;100393.72;4210046;28;20339;-68
2022/05/04 07:58:44;;;;;;;11.13;2.20;;;;;;;17.70;30.46;100398.72;4178169;28;20232;-70
2022/05/04 08:06:42;;;;;;;13.67;2.53;;;;;;;17.27;31.37;100395.97;4195555;28;22176;-68
2022/05/04 08:09:08;;;;;;;9.30;2.30;;;;;;;17.16;31.13;100396.47;4239228;28;20284;-69
2022/05/04 08:11:35;;;;;;;10.43;2.13;;;;;;;17.02;31.38;100400.84;4177187;28;20285;-70
2022/05/04 08:14:02;;;;;;;10.47;2.37;;;;;;;16.84;31.81;100393.19;4204872;28;20245;-68
2022/05/04 08:16:28;;;;;;;14.63;2.87;;;;;;;16.73;32.15;100396.31;4211992;28;20344;-67
2022/05/04 08:19:00;;;;;;;9.13;2.13;;;;;;;16.81;31.91;100388.19;4213214;28;20245;-69
2022/05/04 08:21:27;;;;;;;10.00;2.53;;;;;;;16.56;32.73;100390.31;4189385;28;20425;-69
2022/05/04 08:23:54;;;;;;;9.63;2.03;;;;;;;16.63;33.38;100396.59;4183002;28;23700;-72
2022/05/04 08:26:23;;;;;;;17.77;3.00;;;;;;;17.32;32.34;100398.09;4185525;28;20324;-69
2022/05/04 08:28:51;;;;;;;10.20;2.00;;;;;;;17.02;31.05;100395.47;4239245;28;20686;-67
2022/05/04 08:31:18;;;;;;;7.97;2.17;;;;;;;16.78;32.47;100393.91;4196689;28;20718;-70
2022/05/04 08:33:45;;;;;;;7.73;2.20;;;;;;;16.85;32.47;100394.84;4193029;28;20232;-79
2022/05/04 08:36:12;;;;;;;13.23;2.30;;;;;;;17.21;32.38;100399.44;4196233;28;22463;-71
2022/05/04 08:38:39;;;;;;;6.90;2.10;;;;;;;17.12;32.06;100401.41;4196913;28;21304;-70
2022/05/04 08:41:06;;;;;;;15.53;2.60;;;;;;;17.22;31.88;100403.78;4194074;28;20358;-68
2022/05/04 08:43:33;;;;;;;3.43;1.90;;;;;;;16.80;33.36;100398.09;4199241;28;20289;-70
2022/05/04 08:46:02;;;;;;;6.40;1.73;;;;;;;16.88;32.70;100394.50;4202042;28;20229;-68
2022/05/04 08:48:31;;;;;;;5.50;1.83;;;;;;;16.62;32.64;100402.97;4201086;28;22071;-68
2022/05/04 08:51:03;;;;;;;7.37;1.97;;;;;;;16.42;33.19;100406.22;4173152;28;21191;-69
2022/05/04 08:53:30;;;;;;;12.30;2.53;;;;;;;15.83;33.91;100406.94;4187344;28;20287;-69
2022/05/04 08:55:57;;;;;;;6.17;2.03;;;;;;;16.29;33.16;100402.50;4182111;28;22110;-69
2022/05/04 08:58:24;;;;;;;5.90;1.63;;;;;;;16.48;33.21;100409.19;4203411;28;22107;-69
2022/05/04 09:00:50;;;;;;;7.23;1.77;;;;;;;16.85;33.01;100402.91;4177336;28;21618;-69
2022/05/04 09:03:18;;;;;;;8.33;1.87;;;;;;;16.25;34.51;100400.19;4196462;28;20557;-69
2022/05/04 09:05:49;;;;;;;5.37;2.13;;;;;;;15.96;34.11;100400.94;4199899;28;22203;-68
2022/05/04 09:09:03;;;;;;;10.40;1.70;;;;;;;16.14;33.85;100397.94;4200103;28;20527;-69
2022/05/04 09:11:32;;;;;;;7.47;1.80;;;;;;;16.31;33.18;100397.78;4193849;28;20235;-68
2022/05/04 09:13:59;;;;;;;4.00;1.47;;;;;;;16.03;34.41;100384.97;4192191;28;21522;-70
2022/05/04 09:16:28;;;;;;;6.27;1.93;;;;;;;16.24;34.67;100393.13;4207505;28;20245;-66
2022/05/04 09:18:59;;;;;;;4.33;1.73;;;;;;;16.14;33.69;100394.44;4191903;28;21881;-48
2022/05/04 09:21:26;;;;;;;7.07;1.60;;;;;;;15.70;34.74;100395.09;4188559;28;25075;-67
2022/05/04 09:23:53;;;;;;;8.50;1.60;;;;;;;15.89;33.75;100400.00;4219237;28;20229;-68
2022/05/04 09:26:21;;;;;;;7.13;1.70;;;;;;;16.09;34.18;100402.22;4197917;28;22289;-65
2022/05/04 09:28:50;;;;;;;8.87;1.73;;;;;;;15.90;33.60;100406.22;4213837;28;21802;-68
2022/05/04 09:31:20;;;;;;;3.87;1.57;;;;;;;15.65;34.25;100395.63;4212459;28;26208;-65
2022/05/04 09:33:55;;;;;;;6.03;1.30;;;;;;;16.28;34.20;100400.84;4202463;28;20225;-66
2022/05/04 09:36:33;;;;;;;4.77;1.83;;;;;;;16.43;33.33;100399.00;4221619;28;20361;-69
2022/05/04 09:44:58;;;;;;;7.93;1.50;;;;;;;16.37;33.06;100395.22;4200052;28;21097;-68
2022/05/04 09:47:26;;;;;;;5.43;2.00;;;;;;;16.54;32.54;100397.72;4203851;28;20233;-69
2022/05/04 09:50:01;;;;;;;5.50;1.70;;;;;;;16.22;32.99;100402.41;4199549;28;20238;-68
2022/05/04 09:52:28;;;;;;;3.90;1.33;;;;;;;16.24;32.22;100403.06;4187055;28;20304;-67
2022/05/04 09:54:58;;;;;;;3.60;1.40;;;;;;;16.16;31.63;100405.81;4187045;28;20353;-66
2022/05/04 09:57:25;;;;;;;8.17;1.63;;;;;;;15.92;32.60;100398.81;4205020;28;20706;-67
2022/05/04 09:59:57;;;;;;;6.17;1.53;;;;;;;16.17;32.51;100394.88;4212302;28;21784;-67
2022/05/04 10:02:24;;;;;;;5.97;1.23;;;;;;;16.20;32.37;100388.31;4215453;28;21216;-67
2022/05/04 10:04:51;;;;;;;4.03;1.33;;;;;;;16.27;31.92;100394.63;4217460;28;21246;-67
2022/05/04 10:07:17;;;;;;;8.33;1.40;;;;;;;16.15;32.56;100399.59;4209256;28;21476;-68
2022/05/04 10:09:44;;;;;;;10.83;1.80;;;;;;;16.24;32.31;100403.06;4216090;28;20284;-68
2022/05/04 10:12:11;;;;;;;10.10;1.43;;;;;;;15.79;32.88;100400.25;4219983;28;20240;-67
2022/05/04 10:14:39;;;;;;;3.87;1.70;;;;;;;15.74;33.28;100393.78;4193872;28;21636;-67
2022/05/04 10:17:26;;;;;;;7.17;1.77;;;;;;;15.91;33.47;100389.09;4217465;28;22279;-67
2022/05/04 10:20:05;;;;;;;5.47;1.77;;;;;;;15.95;32.29;100390.41;4225378;28;20408;-67
2022/05/04 10:22:41;;;;;;;5.90;1.57;;;;;;;16.52;32.22;100389.00;4213382;28;20239;-67
2022/05/04 10:25:09;;;;;;;2.43;1.47;;;;;;;16.46;31.16;100383.34;4187577;28;20490;-65
2022/05/04 10:27:40;;;;;;;4.50;1.63;;;;;;;16.42;32.24;100387.41;4186416;28;20379;-67
2022/05/04 10:32:58;;;;;;;3.90;1.53;;;;;;;16.21;31.42;100381.94;4216399;28;22587;-66
2022/05/04 10:35:41;;;;;;;4.77;1.73;;;;;;;16.53;33.36;100377.22;4205952;28;20248;-69
2022/05/04 10:38:19;;;;;;;3.13;1.50;;;;;;;16.98;31.36;100380.75;4213230;28;25603;-67
2022/05/04 10:40:50;;;;;;;5.07;1.47;;;;;;;16.45;30.80;100373.63;4179525;28;20234;-67
2022/05/04 10:43:36;;;;;;;5.37;1.70;;;;;;;16.21;31.40;100371.19;4197079;28;20234;-68
2022/05/04 10:46:06;;;;;;;4.67;1.80;;;;;;;15.97;33.11;100369.59;4178362;28;20674;-67
2022/05/04 10:48:33;;;;;;;3.87;1.70;;;;;;;16.42;32.49;100363.25;4179591;28;21091;-67
2022/05/04 10:51:11;;;;;;;4.23;1.30;;;;;;;16.57;31.59;100360.56;4207709;28;20772;-67
2022/05/04 10:53:39;;;;;;;7.03;1.53;;;;;;;16.63;31.10;100367.88;4217457;28;20237;-67
2022/05/04 10:56:20;;;;;;;6.37;1.70;;;;;;;16.69;31.71;100363.59;4205341;28;20305;-67
2022/05/04 10:58:49;;;;;;;4.17;1.60;;;;;;;16.98;31.01;100367.31;4211753;28;21735;-68
2022/05/04 11:01:28;;;;;;;5.57;1.43;;;;;;;17.27;30.60;100361.84;4198583;28;20238;-67
2022/05/04 11:04:10;;;;;;;4.20;1.40;;;;;;;17.18;30.47;100362.97;4216079;28;20313;-67
2022/05/04 11:06:44;;;;;;;11.97;1.60;;;;;;;17.28;31.44;100362.69;4181020;28;20408;-66
2022/05/04 11:09:19;;;;;;;3.93;1.50;;;;;;;17.28;30.17;100358.16;4216322;28;20336;-67
2022/05/04 11:11:48;;;;;;;7.00;2.53;;;;;;;17.47;31.08;100358.56;4184293;28;20334;-67
2022/05/04 11:14:17;;;;;;;8.87;1.80;;;;;;;17.35;30.17;100354.69;4181186;28;21055;-67
2022/05/04 11:16:44;;;;;;;8.93;1.60;;;;;;;17.57;29.78;100359.06;4179387;28;20234;-67
2022/05/04 11:19:13;;;;;;;5.73;1.20;;;;;;;17.54;30.23;100354.06;4190374;28;20244;-67
2022/05/04 11:21:40;;;;;;;6.53;1.40;;;;;;;17.64;29.31;100357.25;4190949;28;20233;-67
2022/05/04 11:24:08;;;;;;;5.23;1.20;;;;;;;17.43;29.76;100359.94;4179040;28;20233;-68
2022/05/04 11:26:37;;;;;;;9.37;1.60;;;;;;;17.45;29.69;100364.09;4170305;28;22071;-67
2022/05/04 11:29:09;;;;;;;6.53;1.60;;;;;;;17.10;29.07;100357.75;4177484;28;20298;-66
2022/05/04 11:31:36;;;;;;;6.47;1.60;;;;;;;17.52;29.81;100364.19;4179974;28;20346;-68
2022/05/04 11:34:03;;;;;;;6.40;1.87;;;;;;;17.51;30.16;100359.81;4183869;28;20236;-67
2022/05/04 11:36:30;;;;;;;6.60;1.70;;;;;;;17.39;29.20;100358.66;4180608;28;23233;-66
2022/05/04 11:38:57;;;;;;;3.27;1.50;;;;;;;17.38;29.64;100363.22;4185993;28;25208;-65
2022/05/04 11:41:23;;;;;;;7.27;1.50;;;;;;;17.00;29.92;100366.09;4181476;28;21871;-66
2022/05/04 11:43:50;;;;;;;10.03;1.40;;;;;;;16.94;29.75;100360.66;4185264;28;20230;-66
2022/05/04 11:46:17;;;;;;;7.20;1.40;;;;;;;17.57;29.16;100359.06;4174590;28;21604;-66
2022/05/04 11:48:45;;;;;;;7.27;1.53;;;;;;;17.70;29.08;100358.34;4192309;28;20305;-67
2022/05/04 11:51:14;;;;;;;7.73;1.80;;;;;;;17.64;29.61;100351.88;4203737;28;20245;-67
2022/05/04 11:53:40;;;;;;;6.93;1.60;;;;;;;18.21;29.88;100354.63;4196907;28;21997;-67
2022/05/04 11:56:08;;;;;;;4.70;1.50;;;;;;;18.39;28.59;100360.34;4182622;28;21888;-65
2022/05/04 11:58:36;;;;;;;5.77;1.50;;;;;;;18.69;26.85;100360.91;4181306;28;20250;-66
2022/05/04 12:01:04;;;;;;;9.97;1.67;;;;;;;18.49;26.85;100350.03;4193212;28;20236;-66
2022/05/04 12:03:34;;;;;;;6.87;1.33;;;;;;;18.58;27.87;100353.38;4188770;28;20693;-67
2022/05/04 12:06:02;;;;;;;9.77;2.00;;;;;;;18.39;26.85;100357.63;4164797;28;21370;-67